createdAt,value
2022-09-17T00:01:31.485Z,94185.50
2022-09-17T00:04:04.364Z,94195.19
2022-09-17T00:06:34.868Z,94181.50
2022-09-17T00:09:04.745Z,94177.47
2022-09-17T00:11:35.246Z,94176.88
2022-09-17T00:14:04.757Z,94179.72
2022-09-17T00:16:36.675Z,94167.22
2022-09-17T00:19:05.963Z,94168.03
2022-09-17T00:21:33.677Z,94173.91
2022-09-17T00:24:05.053Z,94173.31
2022-09-17T00:26:33.838Z,94175.34
2022-09-17T00:29:01.962Z,94162.84
2022-09-17T00:31:30.820Z,94162.28
2022-09-17T00:33:59.750Z,94160.28
2022-09-17T00:36:27.250Z,94155.03
2022-09-17T00:38:57.681Z,94163.31
2022-09-17T00:41:30.686Z,94156.47
2022-09-17T00:44:01.974Z,94158.69
2022-09-17T00:46:36.855Z,94157.91
2022-09-17T00:49:29.337Z,94159.75
2022-09-17T00:52:11.086Z,94154.50
2022-09-17T00:54:41.461Z,94163.38
2022-09-17T00:57:09.459Z,94161.53
2022-09-17T00:59:36.966Z,94169.19
2022-09-17T01:02:06.449Z,94154.28
2022-09-17T01:04:33.547Z,94162.94
2022-09-17T01:07:13.659Z,94160.31
2022-09-17T01:09:56.988Z,94145.22
2022-09-17T01:13:07.500Z,94159.38
2022-09-17T01:16:14.711Z,94160.53
2022-09-17T01:18:53.836Z,94164.16
2022-09-17T01:21:43.856Z,94168.94
2022-09-17T01:24:51.456Z,94174.97
2022-09-17T01:27:27.474Z,94161.22
2022-09-17T01:30:17.316Z,94161.81
2022-09-17T01:33:11.495Z,94166.84
2022-09-17T01:35:54.885Z,94169.31
2022-09-17T01:38:54.081Z,94165.88
2022-09-17T01:41:27.403Z,94157.41
2022-09-17T01:44:40.680Z,94159.44
2022-09-17T01:47:30.420Z,94155.22
2022-09-17T01:50:18.341Z,94154.03
2022-09-17T01:52:49.947Z,94160.06
2022-09-17T01:55:18.938Z,94150.00
2022-09-17T01:58:08.706Z,94152.84
2022-09-17T02:00:37.778Z,94162.53
2022-09-17T02:03:17.430Z,94171.19
2022-09-17T02:05:56.125Z,94167.78
2022-09-17T02:08:28.784Z,94154.06
2022-09-17T02:11:22.717Z,94163.09
2022-09-17T02:14:10.221Z,94159.06
2022-09-17T02:16:43.339Z,94146.34
2022-09-17T02:19:23.691Z,94154.13
2022-09-17T02:22:05.678Z,94135.38
2022-09-17T02:25:08.903Z,94138.16
2022-09-17T02:28:03.884Z,94125.63
2022-09-17T02:30:32.263Z,94122.78
2022-09-17T02:33:01.616Z,94127.00
2022-09-17T02:35:31.134Z,94124.63
2022-09-17T02:37:58.806Z,94121.63
2022-09-17T02:40:30.203Z,94123.84
2022-09-17T02:43:32.538Z,94119.47
2022-09-17T02:46:36.328Z,94118.72
2022-09-17T02:49:41.253Z,94117.94
2022-09-17T02:53:00.781Z,94113.16
2022-09-17T02:55:51.222Z,94107.53
2022-09-17T02:58:32.524Z,94105.31
2022-09-17T03:01:09.974Z,94109.41
2022-09-17T03:03:43.713Z,94106.19
2022-09-17T03:06:10.870Z,94094.72
2022-09-17T03:08:41.585Z,94099.53
2022-09-17T03:11:12.952Z,94099.75
2022-09-17T03:13:40.884Z,94098.16
2022-09-17T03:16:08.559Z,94080.41
2022-09-17T03:18:36.001Z,94083.66
2022-09-17T03:21:03.249Z,94076.00
2022-09-17T03:23:30.828Z,94066.91
2022-09-17T03:25:59.341Z,94062.28
2022-09-17T03:28:26.566Z,94058.06
2022-09-17T03:30:54.612Z,94057.28
2022-09-17T03:33:22.079Z,94075.78
2022-09-17T03:35:49.170Z,94078.63
2022-09-17T03:38:17.260Z,94093.13
2022-09-17T03:40:44.494Z,94109.41
2022-09-17T03:43:11.697Z,94100.94
2022-09-17T03:45:39.310Z,94102.94
2022-09-17T03:48:06.635Z,94097.84
2022-09-17T03:50:33.647Z,94091.56
2022-09-17T03:53:01.165Z,94089.09
2022-09-17T03:55:28.368Z,94096.28
2022-09-17T03:57:56.186Z,94097.81
2022-09-17T04:00:24.434Z,94105.66
2022-09-17T04:02:51.651Z,94105.16
2022-09-17T04:05:18.571Z,94098.84
2022-09-17T04:07:45.825Z,94087.09
2022-09-17T04:10:12.847Z,94084.66
2022-09-17T04:12:40.050Z,94111.06
2022-09-17T04:15:08.038Z,94121.31
2022-09-17T04:17:35.107Z,94122.94
2022-09-17T04:20:04.136Z,94102.34
2022-09-17T04:22:31.192Z,94106.41
2022-09-17T04:24:58.325Z,94097.28
2022-09-17T04:27:25.451Z,94100.28
2022-09-17T04:29:52.572Z,94091.34
2022-09-17T04:32:19.610Z,94097.81
2022-09-17T04:34:46.718Z,94107.28
2022-09-17T04:37:13.905Z,94100.78
2022-09-17T04:39:40.844Z,94088.69
2022-09-17T04:42:07.884Z,94087.66
2022-09-17T04:44:34.944Z,94085.84
2022-09-17T04:47:02.044Z,94086.66
2022-09-17T04:49:31.017Z,94092.91
2022-09-17T04:51:58.018Z,94087.66
2022-09-17T04:54:25.388Z,94100.19
2022-09-17T04:56:52.899Z,94112.31
2022-09-17T04:59:19.851Z,94108.31
2022-09-17T05:01:47.250Z,94116.56
2022-09-17T05:04:14.205Z,94125.81
2022-09-17T05:06:41.750Z,94149.00
2022-09-17T05:09:08.941Z,94150.84
2022-09-17T05:11:36.525Z,94155.44
2022-09-17T05:14:03.896Z,94148.94
2022-09-17T05:16:31.006Z,94153.41
2022-09-17T05:18:58.225Z,94155.81
2022-09-17T05:21:25.772Z,94162.09
2022-09-17T05:23:52.812Z,94155.22
2022-09-17T05:26:19.734Z,94178.47
2022-09-17T05:28:46.768Z,94183.97
2022-09-17T05:31:14.158Z,94196.88
2022-09-17T05:33:41.119Z,94199.50
2022-09-17T05:36:08.585Z,94196.28
2022-09-17T05:38:35.925Z,94197.88
2022-09-17T05:41:07.599Z,94197.47
2022-09-17T05:43:34.934Z,94190.19
2022-09-17T05:46:06.083Z,94187.34
2022-09-17T05:48:34.072Z,94182.31
2022-09-17T05:51:01.033Z,94181.47
2022-09-17T05:53:27.987Z,94185.50
2022-09-17T05:55:59.162Z,94188.13
2022-09-17T05:58:27.256Z,94187.72
2022-09-17T06:00:54.332Z,94186.88
2022-09-17T06:03:22.902Z,94196.16
2022-09-17T06:05:59.128Z,94196.97
2022-09-17T06:08:28.646Z,94192.31
2022-09-17T06:11:00.226Z,94200.75
2022-09-17T06:13:28.936Z,94201.78
2022-09-17T06:15:58.620Z,94215.50
2022-09-17T06:18:25.655Z,94202.97
2022-09-17T06:21:01.307Z,94207.84
2022-09-17T06:23:35.130Z,94206.47
2022-09-17T06:26:03.492Z,94213.03
2022-09-17T06:28:30.540Z,94215.47
2022-09-17T06:31:03.345Z,94207.38
2022-09-17T06:33:32.238Z,94212.16
2022-09-17T06:36:01.695Z,94200.63
2022-09-17T06:38:29.786Z,94200.78
2022-09-17T06:40:58.213Z,94193.50
2022-09-17T06:43:25.867Z,94190.09
2022-09-17T06:45:57.940Z,94185.19
2022-09-17T06:48:27.476Z,94186.00
2022-09-17T06:50:55.480Z,94193.66
2022-09-17T06:53:24.284Z,94191.84
2022-09-17T06:55:51.754Z,94180.72
2022-09-17T06:58:18.813Z,94186.91
2022-09-17T07:00:46.169Z,94182.00
2022-09-17T07:03:13.171Z,94175.59
2022-09-17T07:05:40.230Z,94175.06
2022-09-17T07:08:07.431Z,94173.19
2022-09-17T07:10:34.447Z,94168.50
2022-09-17T07:13:01.532Z,94157.31
2022-09-17T07:15:28.620Z,94143.72
2022-09-17T07:17:55.752Z,94143.22
2022-09-17T07:20:22.717Z,94128.38
2022-09-17T07:22:57.749Z,94118.53
2022-09-17T07:25:26.778Z,94126.59
2022-09-17T07:27:53.947Z,94123.84
2022-09-17T07:30:21.903Z,94097.66
2022-09-17T07:32:48.938Z,94109.59
2022-09-17T07:35:15.990Z,94128.81
2022-09-17T07:37:42.868Z,94136.56
2022-09-17T07:40:10.193Z,94157.69
2022-09-17T07:42:37.381Z,94147.53
2022-09-17T07:45:05.015Z,94153.16
2022-09-17T07:47:32.897Z,94168.34
2022-09-17T07:49:59.835Z,94162.88
2022-09-17T07:52:27.090Z,94152.91
2022-09-17T07:54:54.003Z,94155.34
2022-09-17T07:57:21.074Z,94142.75
2022-09-17T07:59:48.009Z,94156.41
2022-09-17T08:02:15.186Z,94169.09
2022-09-17T08:04:46.084Z,94186.75
2022-09-17T08:07:13.993Z,94202.53
2022-09-17T08:09:41.010Z,94216.72
2022-09-17T08:12:08.201Z,94212.69
2022-09-17T08:14:35.322Z,94226.06
2022-09-17T08:17:02.274Z,94207.06
2022-09-17T08:19:32.990Z,94205.00
2022-09-17T08:22:00.215Z,94208.34
2022-09-17T08:24:27.812Z,94210.69
2022-09-17T08:26:54.855Z,94200.50
2022-09-17T08:29:21.864Z,94205.00
2022-09-17T08:31:49.945Z,94210.63
2022-09-17T08:34:16.985Z,94217.84
2022-09-17T08:36:44.832Z,94210.28
2022-09-17T08:39:12.430Z,94207.56
2022-09-17T08:41:50.855Z,94210.72
2022-09-17T08:44:36.804Z,94208.78
2022-09-17T08:47:33.614Z,94216.56
2022-09-17T08:50:05.865Z,94204.41
2022-09-17T08:53:04.398Z,94203.84
2022-09-17T08:55:51.765Z,94205.47
2022-09-17T08:58:47.075Z,94202.50
2022-09-17T09:01:47.497Z,94219.78
2022-09-17T09:04:18.512Z,94208.31
2022-09-17T09:06:52.629Z,94203.41
2022-09-17T09:09:25.042Z,94214.09
2022-09-17T09:12:03.501Z,94204.66
2022-09-17T09:14:41.628Z,94202.13
2022-09-17T09:17:10.987Z,94189.28
2022-09-17T09:19:46.798Z,94172.09
2022-09-17T09:22:38.761Z,94185.13
2022-09-17T09:25:23.435Z,94177.34
2022-09-17T09:28:35.312Z,94182.72
2022-09-17T09:31:38.958Z,94193.94
2022-09-17T09:34:06.170Z,94204.84
2022-09-17T09:36:34.101Z,94211.25
2022-09-17T09:39:30.707Z,94204.94
2022-09-17T09:42:10.657Z,94203.56
2022-09-17T09:44:38.093Z,94209.53
2022-09-17T09:47:19.960Z,94218.72
2022-09-17T09:50:38.386Z,94230.41
2022-09-17T09:53:51.684Z,94219.56
2022-09-17T09:56:32.929Z,94221.94
2022-09-17T09:58:59.958Z,94198.13
2022-09-17T10:01:31.698Z,94210.59
2022-09-17T10:03:58.941Z,94207.06
2022-09-17T10:06:30.597Z,94194.81
2022-09-17T10:08:57.486Z,94202.13
2022-09-17T10:11:28.802Z,94209.69
2022-09-17T10:14:25.876Z,94196.06
2022-09-17T10:17:26.593Z,94207.19
2022-09-17T10:20:05.595Z,94211.22
2022-09-17T10:22:38.652Z,94209.13
2022-09-17T10:25:21.394Z,94203.84
2022-09-17T10:27:49.600Z,94199.75
2022-09-17T10:30:19.025Z,94199.75
2022-09-17T10:33:34.043Z,94208.22
2022-09-17T10:36:10.182Z,94196.41
2022-09-17T10:38:46.094Z,94192.97
2022-09-17T10:41:22.317Z,94178.44
2022-09-17T10:43:51.063Z,94188.41
2022-09-17T10:46:29.131Z,94199.03
2022-09-17T10:49:32.605Z,94200.41
2022-09-17T10:52:15.044Z,94185.31
2022-09-17T10:55:10.121Z,94191.03
2022-09-17T10:58:08.019Z,94185.75
2022-09-17T11:00:53.013Z,94194.59
2022-09-17T11:03:59.072Z,94193.41
2022-09-17T11:06:52.685Z,94191.91
2022-09-17T11:10:01.628Z,94195.88
2022-09-17T11:13:07.722Z,94212.22
2022-09-17T11:15:52.769Z,94198.22
2022-09-17T11:18:36.026Z,94207.25
2022-09-17T11:21:35.788Z,94201.16
2022-09-17T11:24:48.778Z,94204.50
2022-09-17T11:27:47.894Z,94201.16
2022-09-17T11:30:24.152Z,94196.94
2022-09-17T11:33:05.904Z,94202.19
2022-09-17T11:35:49.777Z,94183.22
2022-09-17T11:38:30.583Z,94178.50
2022-09-17T11:41:08.235Z,94178.88
2022-09-17T11:43:42.131Z,94161.63
2022-09-17T11:46:29.334Z,94167.25
2022-09-17T11:49:52.436Z,94169.09
2022-09-17T11:52:28.580Z,94154.50
2022-09-17T11:55:35.915Z,94169.53
2022-09-17T11:58:28.483Z,94166.78
2022-09-17T12:01:12.798Z,94173.53
2022-09-17T12:04:01.726Z,94173.09
2022-09-17T12:06:46.878Z,94159.06
2022-09-17T12:09:23.229Z,94168.81
2022-09-17T12:12:05.643Z,94167.19
2022-09-17T12:14:51.138Z,94158.38
2022-09-17T12:17:28.055Z,94171.78
2022-09-17T12:20:03.436Z,94168.22
2022-09-17T12:22:40.069Z,94164.78
2022-09-17T12:25:13.352Z,94154.91
2022-09-17T12:27:46.030Z,94161.91
2022-09-17T12:30:22.002Z,94153.22
2022-09-17T12:33:07.496Z,94150.22
2022-09-17T12:36:05.786Z,94137.72
2022-09-17T12:39:12.045Z,94123.88
2022-09-17T12:42:04.977Z,94109.09
2022-09-17T12:45:26.322Z,94095.81
2022-09-17T12:48:00.189Z,94102.34
2022-09-17T12:50:49.886Z,94097.53
2022-09-17T12:53:22.939Z,94086.19
2022-09-17T12:56:22.405Z,94089.84
2022-09-17T12:59:11.361Z,94094.34
2022-09-17T13:02:00.155Z,94080.00
2022-09-17T13:05:15.904Z,94071.66
2022-09-17T13:08:33.309Z,94078.28
2022-09-17T13:11:21.481Z,94111.75
2022-09-17T13:14:33.808Z,94125.97
2022-09-17T13:17:11.267Z,94132.03
2022-09-17T13:20:20.487Z,94135.56
2022-09-17T13:22:50.613Z,94135.22
2022-09-17T13:25:20.717Z,94137.19
2022-09-17T13:27:50.278Z,94146.09
2022-09-17T13:30:20.765Z,94154.72
2022-09-17T13:32:51.305Z,94136.47
2022-09-17T13:35:18.200Z,94134.44
2022-09-17T13:37:59.154Z,94133.41
2022-09-17T13:40:37.425Z,94125.28
2022-09-17T13:43:04.412Z,94133.53
2022-09-17T13:45:34.144Z,94129.28
2022-09-17T13:48:08.509Z,94131.56
2022-09-17T13:50:41.949Z,94116.13
2022-09-17T13:53:21.381Z,94121.41
2022-09-17T13:56:01.153Z,94133.50
2022-09-17T13:58:32.369Z,94138.97
2022-09-17T14:01:09.452Z,94148.38
2022-09-17T14:03:41.212Z,94151.91
2022-09-17T14:06:08.557Z,94159.13
2022-09-17T14:08:44.441Z,94162.06
2022-09-17T14:12:44.443Z,94161.69
2022-09-17T14:15:43.323Z,94168.09
2022-09-17T14:18:28.745Z,94161.88
2022-09-17T14:21:09.761Z,94149.38
2022-09-17T14:23:48.392Z,94149.50
2022-09-17T14:26:32.350Z,94164.56
2022-09-17T14:29:16.846Z,94170.28
2022-09-17T14:31:43.975Z,94180.22
2022-09-17T14:34:20.546Z,94174.97
2022-09-17T14:36:48.441Z,94182.25
2022-09-17T14:39:24.205Z,94184.09
2022-09-17T14:41:53.027Z,94176.28
2022-09-17T14:44:23.448Z,94176.50
2022-09-17T14:47:06.871Z,94176.94
2022-09-17T14:49:36.813Z,94177.63
2022-09-17T14:52:30.674Z,94172.66
2022-09-17T14:55:26.951Z,94181.19
2022-09-17T14:58:05.167Z,94184.06
2022-09-17T15:00:36.115Z,94183.03
2022-09-17T15:03:03.288Z,94176.19
2022-09-17T15:05:33.129Z,94170.69
2022-09-17T15:08:21.315Z,94173.69
2022-09-17T15:11:03.427Z,94174.28
2022-09-17T15:13:50.315Z,94166.94
2022-09-17T15:16:26.113Z,94165.56
2022-09-17T15:19:04.173Z,94160.91
2022-09-17T15:21:45.879Z,94160.53
2022-09-17T15:24:34.173Z,94162.16
2022-09-17T15:27:10.868Z,94165.78
2022-09-17T15:29:44.299Z,94156.66
2022-09-17T15:32:14.101Z,94163.28
2022-09-17T15:34:42.045Z,94155.75
2022-09-17T15:37:28.188Z,94154.31
2022-09-17T15:39:56.866Z,94147.34
2022-09-17T15:42:30.430Z,94150.34
2022-09-17T15:45:20.568Z,94153.69
2022-09-17T15:47:56.714Z,94152.44
2022-09-17T15:50:36.401Z,94153.81
2022-09-17T15:53:09.265Z,94152.00
2022-09-17T15:55:43.750Z,94141.47
2022-09-17T15:58:27.961Z,94138.84
2022-09-17T16:01:17.421Z,94151.19
2022-09-17T16:03:44.819Z,94149.00
2022-09-17T16:06:21.472Z,94153.91
2022-09-17T16:08:51.408Z,94157.78
2022-09-17T16:11:21.222Z,94157.44
2022-09-17T16:13:49.503Z,94150.63
2022-09-17T16:16:19.838Z,94160.72
2022-09-17T16:18:47.155Z,94157.97
2022-09-17T16:21:16.168Z,94166.88
2022-09-17T16:23:43.882Z,94155.19
2022-09-17T16:26:18.567Z,94163.28
2022-09-17T16:28:48.523Z,94169.44
2022-09-17T16:31:15.757Z,94175.94
2022-09-17T16:33:42.799Z,94168.84
2022-09-17T16:36:10.085Z,94171.72
2022-09-17T16:38:37.154Z,94177.97
2022-09-17T16:41:08.596Z,94176.81
2022-09-17T16:43:35.774Z,94184.13
2022-09-17T16:46:07.857Z,94192.81
2022-09-17T16:48:35.231Z,94188.59
2022-09-17T16:51:13.945Z,94188.81
2022-09-17T16:53:41.638Z,94188.81
2022-09-17T16:56:11.143Z,94186.97
2022-09-17T16:58:38.622Z,94180.75
2022-09-17T17:01:14.089Z,94187.56
2022-09-17T17:03:42.046Z,94184.94
2022-09-17T17:06:17.877Z,94183.34
2022-09-17T17:08:45.899Z,94187.19
2022-09-17T17:11:14.854Z,94182.16
2022-09-17T17:13:45.497Z,94179.38
2022-09-17T17:16:15.030Z,94177.41
2022-09-17T17:18:44.148Z,94174.41
2022-09-17T17:21:13.733Z,94174.47
2022-09-17T17:23:43.572Z,94171.47
2022-09-17T17:26:10.608Z,94174.75
2022-09-17T17:28:37.806Z,94175.84
2022-09-17T17:31:05.914Z,94178.09
2022-09-17T17:33:33.532Z,94178.97
2022-09-17T17:36:07.593Z,94181.22
2022-09-17T17:38:36.907Z,94173.19
2022-09-17T17:41:13.082Z,94170.75
2022-09-17T17:43:41.316Z,94174.63
2022-09-17T17:46:11.188Z,94178.94
2022-09-17T17:48:38.568Z,94178.09
2022-09-17T17:51:10.447Z,94180.13
2022-09-17T17:53:38.285Z,94182.75
2022-09-17T17:56:07.760Z,94181.97
2022-09-17T17:58:36.910Z,94187.00
2022-09-17T18:01:23.801Z,94183.22
2022-09-17T18:03:55.703Z,94182.41
2022-09-17T18:06:22.656Z,94183.63
2022-09-17T18:08:49.581Z,94197.84
2022-09-17T18:11:16.776Z,94193.81
2022-09-17T18:13:44.858Z,94184.41
2022-09-17T18:16:15.619Z,94194.53
2022-09-17T18:18:45.358Z,94201.41
2022-09-17T18:21:22.843Z,94208.75
2022-09-17T18:23:50.854Z,94208.78
2022-09-17T18:26:22.099Z,94211.00
2022-09-17T18:28:50.888Z,94218.50
2022-09-17T18:31:31.507Z,94224.59
2022-09-17T18:34:12.370Z,94232.06
2022-09-17T18:36:40.849Z,94232.13
2022-09-17T18:39:44.929Z,94233.75
2022-09-17T18:41:59.013Z,94236.59
2022-09-17T18:44:26.087Z,94248.72
2022-09-17T18:46:53.867Z,94240.66
2022-09-17T18:49:21.329Z,94248.53
2022-09-17T18:51:48.558Z,94242.91
2022-09-17T18:54:15.911Z,94257.03
2022-09-17T18:56:42.978Z,94264.31
2022-09-17T18:59:10.899Z,94268.75
2022-09-17T19:01:38.319Z,94268.75
2022-09-17T19:04:10.040Z,94281.66
2022-09-17T19:06:38.046Z,94281.25
2022-09-17T19:09:05.785Z,94286.13
2022-09-17T19:11:36.255Z,94297.78
2022-09-17T19:14:03.532Z,94299.00
2022-09-17T19:16:30.843Z,94301.84
2022-09-17T19:18:58.032Z,94300.66
2022-09-17T19:21:25.025Z,94300.84
2022-09-17T19:23:53.750Z,94311.53
2022-09-17T19:26:25.304Z,94302.47
2022-09-17T19:29:03.451Z,94309.09
2022-09-17T19:31:30.917Z,94303.47
2022-09-17T19:34:00.173Z,94316.16
2022-09-17T19:36:27.601Z,94322.03
2022-09-17T19:38:55.509Z,94318.41
2022-09-17T19:41:23.214Z,94315.59
2022-09-17T19:43:54.955Z,94328.06
2022-09-17T19:46:26.968Z,94323.22
2022-09-17T19:48:57.165Z,94326.84
2022-09-17T19:51:26.606Z,94329.47
2022-09-17T19:53:53.779Z,94324.44
2022-09-17T19:56:24.382Z,94330.69
2022-09-17T19:58:52.215Z,94325.66
2022-09-17T20:01:20.122Z,94319.19
2022-09-17T20:03:48.805Z,94321.41
2022-09-17T20:06:20.561Z,94325.44
2022-09-17T20:08:50.551Z,94326.66
2022-09-17T20:11:19.881Z,94327.44
2022-09-17T20:13:47.027Z,94325.81
2022-09-17T20:16:21.533Z,94328.03
2022-09-17T20:18:49.722Z,94333.28
2022-09-17T20:21:23.782Z,94337.28
2022-09-17T20:23:51.623Z,94332.88
2022-09-17T20:26:18.752Z,94345.56
2022-09-17T20:28:46.837Z,94338.13
2022-09-17T20:31:20.768Z,94336.91
2022-09-17T20:33:48.283Z,94339.16
2022-09-17T20:36:18.876Z,94343.97
2022-09-17T20:41:36.247Z,94334.31
2022-09-17T20:44:03.385Z,94338.97
2022-09-17T20:46:30.512Z,94335.91
2022-09-17T20:48:58.183Z,94331.47
2022-09-17T20:51:29.142Z,94337.75
2022-09-17T20:53:57.703Z,94326.47
2022-09-17T20:56:29.524Z,94322.63
2022-09-17T20:59:08.878Z,94325.25
2022-09-17T21:01:37.571Z,94328.47
2022-09-17T21:04:07.546Z,94314.78
2022-09-17T21:06:38.608Z,94316.16
2022-09-17T21:09:06.509Z,94323.63
2022-09-17T21:11:35.362Z,94318.78
2022-09-17T21:14:03.228Z,94321.81
2022-09-17T21:16:30.895Z,94320.81
2022-09-17T21:19:01.528Z,94313.53
2022-09-17T21:21:29.909Z,94319.19
2022-09-17T21:24:04.781Z,94320.78
2022-09-17T21:26:32.585Z,94323.59
2022-09-17T21:29:00.017Z,94321.81
2022-09-17T21:31:32.642Z,94329.25
2022-09-17T21:34:07.822Z,94327.22
2022-09-17T21:36:38.704Z,94314.72
2022-09-17T21:39:15.547Z,94325.22
2022-09-17T21:41:44.413Z,94329.88
2022-09-17T21:44:12.625Z,94324.22
2022-09-17T21:46:41.581Z,94310.72
2022-09-17T21:49:09.318Z,94327.66
2022-09-17T21:51:40.071Z,94320.41
2022-09-17T21:54:13.780Z,94315.97
2022-09-17T21:56:40.917Z,94312.16
2022-09-17T21:59:11.890Z,94317.41
2022-09-17T22:01:46.803Z,94312.72
2022-09-17T22:04:18.128Z,94307.91
2022-09-17T22:06:47.609Z,94307.50
2022-09-17T22:09:24.397Z,94306.88
2022-09-17T22:11:53.252Z,94296.63
2022-09-17T22:14:25.056Z,94297.41
2022-09-17T22:16:55.161Z,94290.75
2022-09-17T22:19:25.015Z,94285.09
2022-09-17T22:21:54.648Z,94276.63
2022-09-17T22:24:22.812Z,94271.78
2022-09-17T22:26:57.226Z,94269.59
2022-09-17T22:29:28.117Z,94278.63
2022-09-17T22:31:55.348Z,94265.31
2022-09-17T22:34:23.735Z,94269.00
2022-09-17T22:36:50.961Z,94273.22
2022-09-17T22:39:21.340Z,94275.66
2022-09-17T22:41:48.464Z,94266.78
2022-09-17T22:44:18.582Z,94270.22
2022-09-17T22:46:48.684Z,94257.34
2022-09-17T22:49:16.568Z,94255.09
2022-09-17T22:51:45.139Z,94248.44
2022-09-17T22:54:14.348Z,94241.78
2022-09-17T22:56:42.233Z,94251.25
2022-09-17T22:59:09.511Z,94232.50
2022-09-17T23:01:37.353Z,94248.25
2022-09-17T23:04:05.969Z,94242.16
2022-09-17T23:06:37.944Z,94236.72
2022-09-17T23:09:05.720Z,94239.94
2022-09-17T23:11:36.836Z,94245.78
2022-09-17T23:14:12.101Z,94230.47
2022-09-17T23:16:46.340Z,94227.22
2022-09-17T23:19:16.344Z,94242.16
2022-09-17T23:21:44.512Z,94228.47
2022-09-17T23:24:18.943Z,94239.34
2022-09-17T23:26:46.511Z,94223.63
2022-09-17T23:29:14.077Z,94243.56
2022-09-17T23:31:41.473Z,94226.84
2022-09-17T23:34:09.543Z,94228.63
2022-09-17T23:36:39.013Z,94225.81
2022-09-17T23:39:07.922Z,94239.50
2022-09-17T23:41:43.008Z,94226.16
2022-09-17T23:44:14.868Z,94230.63
2022-09-17T23:46:44.843Z,94231.41
2022-09-17T23:49:14.372Z,94229.63
2022-09-17T23:51:41.385Z,94221.75
2022-09-17T23:54:09.037Z,94227.59
2022-09-17T23:56:36.453Z,94221.53
2022-09-17T23:59:04.786Z,94223.94
